Watrous, Canada
Current Conditions -  °F | °C
As of 10:00 AM on Wednesday 28 Jan 2015 (Local Time) from CYXE Reporting Station
Light Snow Light Snow  
Wind Chill: -11°   Ceiling: 1400
Heat Index: -7°   Visibility: 15mi
Dew Point: -9°   Wind: 5mph
Humidity: 86%   Direction: 290°WNW
Pressure: 30.07"   Gusts: NA
Location:  51.67°N, 105.45°W
Report Text: CYXE 281600Z 29004KT 260V320 15SM -SN OVC014 M07/M09 A3007 RMK SC8 SLP217
Loading
Personal Weather Stations






























Interactive Weather Map New forecast layout! Learn more

10-Day Weather Forecast

Advertisements
Track Severe Weather on mobile